sensor_id;sensor_type;location;lat;lon;timestamp;P1;durP1;ratioP1;P2;durP2;ratioP2
67340;SDS011;54227;45.198;5.732;2022-07-18T00:00:13;1.90;;;0.80;;
67340;SDS011;54227;45.198;5.732;2022-07-18T00:02:41;1.35;;;0.90;;
67340;SDS011;54227;45.198;5.732;2022-07-18T00:05:06;1.20;;;0.80;;
67340;SDS011;54227;45.198;5.732;2022-07-18T00:07:32;1.02;;;0.80;;
67340;SDS011;54227;45.198;5.732;2022-07-18T00:09:58;1.23;;;0.90;;
67340;SDS011;54227;45.198;5.732;2022-07-18T00:12:23;1.50;;;1.00;;
67340;SDS011;54227;45.198;5.732;2022-07-18T00:14:49;0.93;;;0.82;;
67340;SDS011;54227;45.198;5.732;2022-07-18T00:17:14;1.75;;;0.75;;
67340;SDS011;54227;45.198;5.732;2022-07-18T00:19:40;1.02;;;0.75;;
67340;SDS011;54227;45.198;5.732;2022-07-18T00:22:05;1.13;;;0.77;;
67340;SDS011;54227;45.198;5.732;2022-07-18T00:24:32;1.27;;;0.80;;
67340;SDS011;54227;45.198;5.732;2022-07-18T00:26:58;2.55;;;0.90;;
67340;SDS011;54227;45.198;5.732;2022-07-18T00:29:24;1.77;;;0.95;;
67340;SDS011;54227;45.198;5.732;2022-07-18T00:31:50;1.13;;;0.80;;
67340;SDS011;54227;45.198;5.732;2022-07-18T00:34:17;1.48;;;0.75;;
67340;SDS011;54227;45.198;5.732;2022-07-18T00:36:43;1.52;;;0.75;;
67340;SDS011;54227;45.198;5.732;2022-07-18T00:39:08;0.75;;;0.60;;
67340;SDS011;54227;45.198;5.732;2022-07-18T00:41:34;1.30;;;0.90;;
67340;SDS011;54227;45.198;5.732;2022-07-18T00:43:59;2.63;;;1.10;;
67340;SDS011;54227;45.198;5.732;2022-07-18T00:46:25;1.83;;;0.90;;
67340;SDS011;54227;45.198;5.732;2022-07-18T00:48:52;1.20;;;0.80;;
67340;SDS011;54227;45.198;5.732;2022-07-18T00:51:19;0.90;;;0.70;;
67340;SDS011;54227;45.198;5.732;2022-07-18T00:53:45;1.27;;;0.93;;
67340;SDS011;54227;45.198;5.732;2022-07-18T00:56:13;1.27;;;0.88;;
67340;SDS011;54227;45.198;5.732;2022-07-18T00:58:42;2.67;;;1.10;;
67340;SDS011;54227;45.198;5.732;2022-07-18T01:01:08;0.98;;;0.73;;
67340;SDS011;54227;45.198;5.732;2022-07-18T01:03:52;1.40;;;0.85;;
67340;SDS011;54227;45.198;5.732;2022-07-18T01:06:17;2.08;;;0.80;;
67340;SDS011;54227;45.198;5.732;2022-07-18T01:08:43;1.30;;;1.00;;
67340;SDS011;54227;45.198;5.732;2022-07-18T01:11:09;2.65;;;0.70;;
67340;SDS011;54227;45.198;5.732;2022-07-18T01:13:36;1.02;;;0.80;;
67340;SDS011;54227;45.198;5.732;2022-07-18T01:16:02;0.90;;;0.77;;
67340;SDS011;54227;45.198;5.732;2022-07-18T01:18:28;1.25;;;0.90;;
67340;SDS011;54227;45.198;5.732;2022-07-18T01:20:53;1.23;;;0.82;;
67340;SDS011;54227;45.198;5.732;2022-07-18T01:23:19;1.20;;;0.80;;
67340;SDS011;54227;45.198;5.732;2022-07-18T01:25:44;1.15;;;0.75;;
67340;SDS011;54227;45.198;5.732;2022-07-18T01:28:12;1.10;;;0.88;;
67340;SDS011;54227;45.198;5.732;2022-07-18T01:30:38;1.50;;;1.00;;
67340;SDS011;54227;45.198;5.732;2022-07-18T01:33:04;0.98;;;0.70;;
67340;SDS011;54227;45.198;5.732;2022-07-18T01:35:31;0.93;;;0.73;;
67340;SDS011;54227;45.198;5.732;2022-07-18T01:37:57;1.50;;;0.90;;
67340;SDS011;54227;45.198;5.732;2022-07-18T01:40:25;1.00;;;0.80;;
67340;SDS011;54227;45.198;5.732;2022-07-18T01:42:51;0.80;;;0.70;;
67340;SDS011;54227;45.198;5.732;2022-07-18T01:45:18;1.20;;;0.90;;
67340;SDS011;54227;45.198;5.732;2022-07-18T01:47:44;1.33;;;0.90;;
67340;SDS011;54227;45.198;5.732;2022-07-18T01:50:10;0.85;;;0.60;;
67340;SDS011;54227;45.198;5.732;2022-07-18T01:52:36;1.33;;;0.80;;
67340;SDS011;54227;45.198;5.732;2022-07-18T01:55:03;2.72;;;0.90;;
67340;SDS011;54227;45.198;5.732;2022-07-18T01:57:29;1.13;;;0.77;;
67340;SDS011;54227;45.198;5.732;2022-07-18T01:59:55;1.00;;;0.80;;
67340;SDS011;54227;45.198;5.732;2022-07-18T02:02:20;1.15;;;0.80;;
67340;SDS011;54227;45.198;5.732;2022-07-18T02:04:46;0.93;;;0.70;;
67340;SDS011;54227;45.198;5.732;2022-07-18T02:07:28;1.60;;;0.88;;
67340;SDS011;54227;45.198;5.732;2022-07-18T02:09:55;1.52;;;0.90;;
67340;SDS011;54227;45.198;5.732;2022-07-18T02:12:21;1.10;;;0.80;;
67340;SDS011;54227;45.198;5.732;2022-07-18T02:14:47;1.15;;;0.90;;
67340;SDS011;54227;45.198;5.732;2022-07-18T02:17:13;1.10;;;0.88;;
67340;SDS011;54227;45.198;5.732;2022-07-18T02:19:38;3.20;;;0.93;;
67340;SDS011;54227;45.198;5.732;2022-07-18T02:22:05;1.17;;;0.88;;
67340;SDS011;54227;45.198;5.732;2022-07-18T02:24:30;0.95;;;0.80;;
67340;SDS011;54227;45.198;5.732;2022-07-18T02:26:56;1.50;;;0.90;;
67340;SDS011;54227;45.198;5.732;2022-07-18T02:29:21;1.10;;;0.90;;
67340;SDS011;54227;45.198;5.732;2022-07-18T02:31:47;1.13;;;0.80;;
67340;SDS011;54227;45.198;5.732;2022-07-18T02:34:12;1.00;;;0.80;;
67340;SDS011;54227;45.198;5.732;2022-07-18T02:36:39;1.17;;;0.82;;
67340;SDS011;54227;45.198;5.732;2022-07-18T02:39:06;0.90;;;0.80;;
67340;SDS011;54227;45.198;5.732;2022-07-18T02:41:32;1.38;;;0.90;;
67340;SDS011;54227;45.198;5.732;2022-07-18T02:43:58;1.40;;;0.90;;
67340;SDS011;54227;45.198;5.732;2022-07-18T02:46:24;1.02;;;0.77;;
67340;SDS011;54227;45.198;5.732;2022-07-18T02:48:49;1.17;;;0.75;;
67340;SDS011;54227;45.198;5.732;2022-07-18T02:51:15;1.15;;;0.90;;
67340;SDS011;54227;45.198;5.732;2022-07-18T02:53:40;1.50;;;0.90;;
67340;SDS011;54227;45.198;5.732;2022-07-18T02:56:05;1.00;;;0.77;;
67340;SDS011;54227;45.198;5.732;2022-07-18T02:58:31;1.40;;;1.00;;
67340;SDS011;54227;45.198;5.732;2022-07-18T03:00:57;1.30;;;0.90;;
67340;SDS011;54227;45.198;5.732;2022-07-18T03:03:23;1.58;;;1.10;;
67340;SDS011;54227;45.198;5.732;2022-07-18T03:05:48;1.10;;;0.80;;
67340;SDS011;54227;45.198;5.732;2022-07-18T03:08:14;1.30;;;0.90;;
67340;SDS011;54227;45.198;5.732;2022-07-18T03:10:39;1.48;;;1.00;;
67340;SDS011;54227;45.198;5.732;2022-07-18T03:13:05;1.00;;;0.80;;
67340;SDS011;54227;45.198;5.732;2022-07-18T03:15:30;1.23;;;0.85;;
67340;SDS011;54227;45.198;5.732;2022-07-18T03:17:56;1.45;;;1.00;;
67340;SDS011;54227;45.198;5.732;2022-07-18T03:20:22;1.30;;;0.90;;
67340;SDS011;54227;45.198;5.732;2022-07-18T03:22:47;1.05;;;0.80;;
67340;SDS011;54227;45.198;5.732;2022-07-18T03:25:13;1.25;;;0.90;;
67340;SDS011;54227;45.198;5.732;2022-07-18T03:27:38;1.23;;;0.85;;
67340;SDS011;54227;45.198;5.732;2022-07-18T03:30:04;1.08;;;0.85;;
67340;SDS011;54227;45.198;5.732;2022-07-18T03:32:29;1.17;;;0.90;;
67340;SDS011;54227;45.198;5.732;2022-07-18T03:34:55;1.85;;;1.10;;
67340;SDS011;54227;45.198;5.732;2022-07-18T03:37:20;1.63;;;0.90;;
67340;SDS011;54227;45.198;5.732;2022-07-18T03:39:46;1.30;;;0.90;;
67340;SDS011;54227;45.198;5.732;2022-07-18T03:42:11;1.40;;;0.90;;
67340;SDS011;54227;45.198;5.732;2022-07-18T03:44:36;1.30;;;0.90;;
67340;SDS011;54227;45.198;5.732;2022-07-18T03:47:02;1.30;;;0.88;;
67340;SDS011;54227;45.198;5.732;2022-07-18T03:49:27;1.20;;;0.90;;
67340;SDS011;54227;45.198;5.732;2022-07-18T03:51:52;1.42;;;1.00;;
67340;SDS011;54227;45.198;5.732;2022-07-18T03:54:20;1.23;;;0.98;;
67340;SDS011;54227;45.198;5.732;2022-07-18T03:56:46;1.38;;;1.00;;
67340;SDS011;54227;45.198;5.732;2022-07-18T03:59:12;1.23;;;0.93;;
67340;SDS011;54227;45.198;5.732;2022-07-18T04:01:37;1.27;;;0.98;;
67340;SDS011;54227;45.198;5.732;2022-07-18T04:04:03;1.15;;;0.80;;
67340;SDS011;54227;45.198;5.732;2022-07-18T04:06:28;1.45;;;0.90;;
67340;SDS011;54227;45.198;5.732;2022-07-18T04:08:54;1.40;;;1.00;;
67340;SDS011;54227;45.198;5.732;2022-07-18T04:11:19;1.55;;;0.90;;
67340;SDS011;54227;45.198;5.732;2022-07-18T04:13:48;1.52;;;1.00;;
67340;SDS011;54227;45.198;5.732;2022-07-18T04:16:17;1.48;;;0.90;;
67340;SDS011;54227;45.198;5.732;2022-07-18T04:18:42;1.30;;;0.90;;
67340;SDS011;54227;45.198;5.732;2022-07-18T04:21:08;1.50;;;1.00;;
67340;SDS011;54227;45.198;5.732;2022-07-18T04:23:33;1.50;;;0.80;;
67340;SDS011;54227;45.198;5.732;2022-07-18T04:25:59;1.13;;;0.82;;
67340;SDS011;54227;45.198;5.732;2022-07-18T04:28:24;1.30;;;0.90;;
67340;SDS011;54227;45.198;5.732;2022-07-18T04:30:50;1.20;;;0.93;;
67340;SDS011;54227;45.198;5.732;2022-07-18T04:33:15;1.17;;;0.90;;
67340;SDS011;54227;45.198;5.732;2022-07-18T04:35:41;1.13;;;0.90;;
67340;SDS011;54227;45.198;5.732;2022-07-18T04:38:07;1.42;;;1.00;;
67340;SDS011;54227;45.198;5.732;2022-07-18T04:40:34;1.40;;;0.90;;
67340;SDS011;54227;45.198;5.732;2022-07-18T04:43:00;1.30;;;0.98;;
67340;SDS011;54227;45.198;5.732;2022-07-18T04:45:26;1.20;;;0.82;;
67340;SDS011;54227;45.198;5.732;2022-07-18T04:47:52;1.50;;;1.10;;
67340;SDS011;54227;45.198;5.732;2022-07-18T04:50:19;1.50;;;1.05;;
67340;SDS011;54227;45.198;5.732;2022-07-18T04:52:45;1.30;;;0.88;;
67340;SDS011;54227;45.198;5.732;2022-07-18T04:55:12;1.35;;;0.90;;
67340;SDS011;54227;45.198;5.732;2022-07-18T04:57:38;1.40;;;1.00;;
67340;SDS011;54227;45.198;5.732;2022-07-18T05:00:05;1.20;;;0.80;;
67340;SDS011;54227;45.198;5.732;2022-07-18T05:02:32;1.58;;;1.00;;
67340;SDS011;54227;45.198;5.732;2022-07-18T05:04:58;1.27;;;0.80;;
67340;SDS011;54227;45.198;5.732;2022-07-18T05:07:24;1.40;;;0.88;;
67340;SDS011;54227;45.198;5.732;2022-07-18T05:09:49;1.30;;;0.90;;
67340;SDS011;54227;45.198;5.732;2022-07-18T05:12:15;1.35;;;1.00;;
67340;SDS011;54227;45.198;5.732;2022-07-18T05:14:40;1.25;;;0.80;;
67340;SDS011;54227;45.198;5.732;2022-07-18T05:17:05;1.40;;;0.93;;
67340;SDS011;54227;45.198;5.732;2022-07-18T05:19:31;4.88;;;0.90;;
67340;SDS011;54227;45.198;5.732;2022-07-18T05:21:56;1.60;;;0.93;;
67340;SDS011;54227;45.198;5.732;2022-07-18T05:24:22;1.70;;;1.10;;
67340;SDS011;54227;45.198;5.732;2022-07-18T05:26:47;1.40;;;1.10;;
67340;SDS011;54227;45.198;5.732;2022-07-18T05:29:13;1.40;;;0.98;;
67340;SDS011;54227;45.198;5.732;2022-07-18T05:31:41;1.70;;;1.02;;
67340;SDS011;54227;45.198;5.732;2022-07-18T05:34:07;2.15;;;1.00;;
67340;SDS011;54227;45.198;5.732;2022-07-18T05:36:33;2.53;;;1.10;;
67340;SDS011;54227;45.198;5.732;2022-07-18T05:38:59;1.50;;;0.90;;
67340;SDS011;54227;45.198;5.732;2022-07-18T05:41:25;1.50;;;1.00;;
67340;SDS011;54227;45.198;5.732;2022-07-18T05:43:52;1.35;;;0.98;;
67340;SDS011;54227;45.198;5.732;2022-07-18T05:46:17;1.40;;;1.00;;
67340;SDS011;54227;45.198;5.732;2022-07-18T05:48:43;3.25;;;1.00;;
67340;SDS011;54227;45.198;5.732;2022-07-18T05:51:08;1.58;;;1.00;;
67340;SDS011;54227;45.198;5.732;2022-07-18T05:53:35;2.40;;;1.00;;
67340;SDS011;54227;45.198;5.732;2022-07-18T05:56:00;1.17;;;0.90;;
67340;SDS011;54227;45.198;5.732;2022-07-18T05:58:26;1.80;;;1.08;;
67340;SDS011;54227;45.198;5.732;2022-07-18T06:00:51;1.20;;;1.00;;
67340;SDS011;54227;45.198;5.732;2022-07-18T06:03:16;1.45;;;0.98;;
67340;SDS011;54227;45.198;5.732;2022-07-18T06:05:42;1.90;;;1.10;;
67340;SDS011;54227;45.198;5.732;2022-07-18T06:08:07;1.67;;;0.90;;
67340;SDS011;54227;45.198;5.732;2022-07-18T06:10:33;1.70;;;1.02;;
67340;SDS011;54227;45.198;5.732;2022-07-18T06:12:58;1.45;;;0.90;;
67340;SDS011;54227;45.198;5.732;2022-07-18T06:15:24;1.90;;;1.17;;
67340;SDS011;54227;45.198;5.732;2022-07-18T06:17:49;1.73;;;1.20;;
67340;SDS011;54227;45.198;5.732;2022-07-18T06:20:15;1.77;;;1.10;;
67340;SDS011;54227;45.198;5.732;2022-07-18T06:22:41;1.92;;;1.02;;
67340;SDS011;54227;45.198;5.732;2022-07-18T06:25:08;1.70;;;0.93;;
67340;SDS011;54227;45.198;5.732;2022-07-18T06:27:34;1.60;;;0.90;;
67340;SDS011;54227;45.198;5.732;2022-07-18T06:30:00;2.13;;;1.00;;
67340;SDS011;54227;45.198;5.732;2022-07-18T06:32:29;1.20;;;0.90;;
67340;SDS011;54227;45.198;5.732;2022-07-18T06:34:55;1.45;;;0.88;;
67340;SDS011;54227;45.198;5.732;2022-07-18T06:37:20;1.35;;;1.00;;
67340;SDS011;54227;45.198;5.732;2022-07-18T06:39:46;1.30;;;0.90;;
67340;SDS011;54227;45.198;5.732;2022-07-18T06:42:11;1.50;;;1.00;;
67340;SDS011;54227;45.198;5.732;2022-07-18T06:44:36;1.30;;;0.90;;
67340;SDS011;54227;45.198;5.732;2022-07-18T06:47:02;1.95;;;1.00;;
67340;SDS011;54227;45.198;5.732;2022-07-18T06:49:27;2.00;;;1.10;;
67340;SDS011;54227;45.198;5.732;2022-07-18T06:51:53;1.50;;;0.98;;
67340;SDS011;54227;45.198;5.732;2022-07-18T06:54:18;2.63;;;1.25;;
67340;SDS011;54227;45.198;5.732;2022-07-18T06:56:45;3.85;;;1.70;;
67340;SDS011;54227;45.198;5.732;2022-07-18T06:59:11;5.90;;;1.63;;
67340;SDS011;54227;45.198;5.732;2022-07-18T07:01:36;3.90;;;1.67;;
67340;SDS011;54227;45.198;5.732;2022-07-18T07:04:02;5.07;;;1.70;;
67340;SDS011;54227;45.198;5.732;2022-07-18T07:06:27;4.65;;;1.80;;
67340;SDS011;54227;45.198;5.732;2022-07-18T07:08:53;5.30;;;2.10;;
67340;SDS011;54227;45.198;5.732;2022-07-18T07:11:18;4.47;;;2.10;;
67340;SDS011;54227;45.198;5.732;2022-07-18T07:13:46;3.80;;;1.90;;
67340;SDS011;54227;45.198;5.732;2022-07-18T07:16:12;6.28;;;2.20;;
67340;SDS011;54227;45.198;5.732;2022-07-18T07:18:37;5.95;;;2.20;;
67340;SDS011;54227;45.198;5.732;2022-07-18T07:21:03;10.20;;;2.20;;
67340;SDS011;54227;45.198;5.732;2022-07-18T07:23:30;6.97;;;2.10;;
67340;SDS011;54227;45.198;5.732;2022-07-18T07:25:55;5.38;;;2.10;;
67340;SDS011;54227;45.198;5.732;2022-07-18T07:28:21;4.47;;;2.13;;
67340;SDS011;54227;45.198;5.732;2022-07-18T07:30:46;5.72;;;2.28;;
67340;SDS011;54227;45.198;5.732;2022-07-18T07:33:12;6.25;;;2.03;;
67340;SDS011;54227;45.198;5.732;2022-07-18T07:35:37;5.30;;;2.05;;
67340;SDS011;54227;45.198;5.732;2022-07-18T07:38:03;4.05;;;1.95;;
67340;SDS011;54227;45.198;5.732;2022-07-18T07:40:29;7.28;;;2.00;;
67340;SDS011;54227;45.198;5.732;2022-07-18T07:43:09;3.22;;;1.90;;
67340;SDS011;54227;45.198;5.732;2022-07-18T07:45:36;4.05;;;1.90;;
67340;SDS011;54227;45.198;5.732;2022-07-18T07:48:03;5.50;;;1.83;;
67340;SDS011;54227;45.198;5.732;2022-07-18T07:50:29;4.80;;;2.47;;
67340;SDS011;54227;45.198;5.732;2022-07-18T07:52:56;5.40;;;2.08;;
67340;SDS011;54227;45.198;5.732;2022-07-18T07:55:22;5.38;;;2.20;;
67340;SDS011;54227;45.198;5.732;2022-07-18T07:57:49;5.68;;;2.33;;
67340;SDS011;54227;45.198;5.732;2022-07-18T08:00:15;4.32;;;2.30;;
67340;SDS011;54227;45.198;5.732;2022-07-18T08:02:57;5.38;;;2.40;;
67340;SDS011;54227;45.198;5.732;2022-07-18T08:05:28;5.43;;;2.17;;
67340;SDS011;54227;45.198;5.732;2022-07-18T08:07:57;5.93;;;2.30;;
67340;SDS011;54227;45.198;5.732;2022-07-18T08:10:24;4.97;;;2.28;;
67340;SDS011;54227;45.198;5.732;2022-07-18T08:12:51;4.40;;;2.30;;
67340;SDS011;54227;45.198;5.732;2022-07-18T08:15:17;8.48;;;2.25;;
67340;SDS011;54227;45.198;5.732;2022-07-18T08:17:43;10.82;;;2.20;;
67340;SDS011;54227;45.198;5.732;2022-07-18T08:20:08;10.57;;;2.25;;
67340;SDS011;54227;45.198;5.732;2022-07-18T08:22:36;7.90;;;2.30;;
67340;SDS011;54227;45.198;5.732;2022-07-18T08:25:16;7.78;;;2.58;;
67340;SDS011;54227;45.198;5.732;2022-07-18T08:27:43;11.30;;;2.67;;
67340;SDS011;54227;45.198;5.732;2022-07-18T08:30:09;7.43;;;2.20;;
67340;SDS011;54227;45.198;5.732;2022-07-18T08:32:35;6.53;;;2.22;;
67340;SDS011;54227;45.198;5.732;2022-07-18T08:35:00;7.18;;;2.30;;
67340;SDS011;54227;45.198;5.732;2022-07-18T08:37:27;4.93;;;2.40;;
67340;SDS011;54227;45.198;5.732;2022-07-18T08:39:52;5.72;;;2.38;;
67340;SDS011;54227;45.198;5.732;2022-07-18T08:42:18;5.97;;;2.30;;
67340;SDS011;54227;45.198;5.732;2022-07-18T08:44:48;10.13;;;2.60;;
67340;SDS011;54227;45.198;5.732;2022-07-18T08:47:14;6.50;;;2.22;;
67340;SDS011;54227;45.198;5.732;2022-07-18T08:49:42;5.68;;;2.67;;
67340;SDS011;54227;45.198;5.732;2022-07-18T08:52:08;5.78;;;2.50;;
67340;SDS011;54227;45.198;5.732;2022-07-18T08:54:35;7.95;;;2.67;;
67340;SDS011;54227;45.198;5.732;2022-07-18T08:57:01;4.80;;;2.58;;
67340;SDS011;54227;45.198;5.732;2022-07-18T08:59:26;7.45;;;2.45;;
67340;SDS011;54227;45.198;5.732;2022-07-18T09:01:52;6.35;;;2.47;;
67340;SDS011;54227;45.198;5.732;2022-07-18T09:04:33;9.80;;;3.00;;
67340;SDS011;54227;45.198;5.732;2022-07-18T09:07:06;7.72;;;2.40;;
67340;SDS011;54227;45.198;5.732;2022-07-18T09:09:33;5.57;;;2.60;;
67340;SDS011;54227;45.198;5.732;2022-07-18T09:12:03;8.52;;;3.08;;
67340;SDS011;54227;45.198;5.732;2022-07-18T09:14:34;6.55;;;2.45;;
67340;SDS011;54227;45.198;5.732;2022-07-18T09:20:00;8.13;;;2.50;;
67340;SDS011;54227;45.198;5.732;2022-07-18T09:22:32;9.15;;;3.10;;
67340;SDS011;54227;45.198;5.732;2022-07-18T09:25:07;6.93;;;2.30;;
67340;SDS011;54227;45.198;5.732;2022-07-18T09:27:40;6.50;;;2.80;;
67340;SDS011;54227;45.198;5.732;2022-07-18T09:33:09;5.15;;;2.47;;
67340;SDS011;54227;45.198;5.732;2022-07-18T09:35:45;4.60;;;2.92;;
67340;SDS011;54227;45.198;5.732;2022-07-18T09:38:14;7.70;;;2.60;;
67340;SDS011;54227;45.198;5.732;2022-07-18T09:43:11;5.93;;;2.70;;
67340;SDS011;54227;45.198;5.732;2022-07-18T09:45:40;7.68;;;2.53;;
67340;SDS011;54227;45.198;5.732;2022-07-18T09:48:07;8.20;;;2.75;;
67340;SDS011;54227;45.198;5.732;2022-07-18T09:53:24;6.97;;;2.35;;
67340;SDS011;54227;45.198;5.732;2022-07-18T09:55:53;8.55;;;2.60;;
67340;SDS011;54227;45.198;5.732;2022-07-18T09:58:27;7.70;;;2.70;;
67340;SDS011;54227;45.198;5.732;2022-07-18T10:00:55;6.68;;;2.80;;
67340;SDS011;54227;45.198;5.732;2022-07-18T10:03:22;6.47;;;2.70;;
67340;SDS011;54227;45.198;5.732;2022-07-18T10:05:49;6.75;;;2.63;;
67340;SDS011;54227;45.198;5.732;2022-07-18T10:08:17;4.95;;;2.90;;
67340;SDS011;54227;45.198;5.732;2022-07-18T10:10:45;7.78;;;2.70;;
67340;SDS011;54227;45.198;5.732;2022-07-18T10:13:12;7.68;;;2.88;;
67340;SDS011;54227;45.198;5.732;2022-07-18T10:15:39;4.72;;;2.63;;
67340;SDS011;54227;45.198;5.732;2022-07-18T10:18:07;7.32;;;3.40;;
67340;SDS011;54227;45.198;5.732;2022-07-18T10:20:36;4.70;;;2.63;;
67340;SDS011;54227;45.198;5.732;2022-07-18T10:25:41;6.85;;;2.70;;
67340;SDS011;54227;45.198;5.732;2022-07-18T10:28:08;7.15;;;2.80;;
67340;SDS011;54227;45.198;5.732;2022-07-18T10:30:36;8.05;;;3.25;;
67340;SDS011;54227;45.198;5.732;2022-07-18T10:38:34;6.25;;;2.65;;
67340;SDS011;54227;45.198;5.732;2022-07-18T10:41:04;6.63;;;2.78;;
67340;SDS011;54227;45.198;5.732;2022-07-18T10:43:33;6.47;;;3.13;;
67340;SDS011;54227;45.198;5.732;2022-07-18T10:46:02;7.60;;;3.05;;
67340;SDS011;54227;45.198;5.732;2022-07-18T10:53:51;9.43;;;2.88;;
67340;SDS011;54227;45.198;5.732;2022-07-18T10:59:00;3.80;;;2.22;;
67340;SDS011;54227;45.198;5.732;2022-07-18T11:01:52;6.65;;;2.20;;
67340;SDS011;54227;45.198;5.732;2022-07-18T11:04:28;4.00;;;2.10;;
67340;SDS011;54227;45.198;5.732;2022-07-18T11:07:13;5.18;;;2.35;;
67340;SDS011;54227;45.198;5.732;2022-07-18T11:09:46;5.50;;;1.85;;
67340;SDS011;54227;45.198;5.732;2022-07-18T11:12:22;3.15;;;2.10;;
67340;SDS011;54227;45.198;5.732;2022-07-18T11:15:00;3.67;;;2.00;;
67340;SDS011;54227;45.198;5.732;2022-07-18T11:20:36;3.63;;;1.95;;
67340;SDS011;54227;45.198;5.732;2022-07-18T11:23:13;13.30;;;8.77;;
67340;SDS011;54227;45.198;5.732;2022-07-18T11:25:41;12.45;;;7.50;;
67340;SDS011;54227;45.198;5.732;2022-07-18T11:28:07;9.88;;;7.20;;
67340;SDS011;54227;45.198;5.732;2022-07-18T11:30:34;7.20;;;5.80;;
67340;SDS011;54227;45.198;5.732;2022-07-18T11:33:00;9.90;;;6.20;;
67340;SDS011;54227;45.198;5.732;2022-07-18T11:35:26;8.93;;;5.10;;
67340;SDS011;54227;45.198;5.732;2022-07-18T11:37:51;13.38;;;4.82;;
67340;SDS011;54227;45.198;5.732;2022-07-18T11:40:18;7.47;;;4.65;;
67340;SDS011;54227;45.198;5.732;2022-07-18T11:42:44;5.85;;;4.50;;
67340;SDS011;54227;45.198;5.732;2022-07-18T11:45:12;5.28;;;4.07;;
67340;SDS011;54227;45.198;5.732;2022-07-18T11:50:05;5.75;;;3.63;;
67340;SDS011;54227;45.198;5.732;2022-07-18T11:52:31;6.82;;;3.70;;
67340;SDS011;54227;45.198;5.732;2022-07-18T11:54:58;8.05;;;3.78;;
67340;SDS011;54227;45.198;5.732;2022-07-18T11:57:29;7.60;;;3.78;;
67340;SDS011;54227;45.198;5.732;2022-07-18T11:59:56;4.70;;;3.28;;
67340;SDS011;54227;45.198;5.732;2022-07-18T12:05:58;6.30;;;3.15;;
67340;SDS011;54227;45.198;5.732;2022-07-18T12:08:24;3.92;;;2.67;;
67340;SDS011;54227;45.198;5.732;2022-07-18T12:11:02;3.47;;;2.40;;
67340;SDS011;54227;45.198;5.732;2022-07-18T12:13:58;3.28;;;2.30;;
67340;SDS011;54227;45.198;5.732;2022-07-18T12:18:55;3.38;;;2.20;;
67340;SDS011;54227;45.198;5.732;2022-07-18T12:24:16;4.70;;;2.22;;
67340;SDS011;54227;45.198;5.732;2022-07-18T12:35:16;4.05;;;2.22;;
67340;SDS011;54227;45.198;5.732;2022-07-18T12:37:50;2.75;;;1.65;;
67340;SDS011;54227;45.198;5.732;2022-07-18T12:40:24;2.95;;;1.80;;
67340;SDS011;54227;45.198;5.732;2022-07-18T12:43:03;3.22;;;1.90;;
67340;SDS011;54227;45.198;5.732;2022-07-18T12:45:41;4.70;;;1.95;;
67340;SDS011;54227;45.198;5.732;2022-07-18T12:48:09;2.90;;;1.60;;
67340;SDS011;54227;45.198;5.732;2022-07-18T12:50:37;2.47;;;1.58;;
67340;SDS011;54227;45.198;5.732;2022-07-18T12:53:05;2.47;;;1.60;;
67340;SDS011;54227;45.198;5.732;2022-07-18T12:55:31;2.67;;;1.65;;
67340;SDS011;54227;45.198;5.732;2022-07-18T12:57:57;2.20;;;1.55;;
67340;SDS011;54227;45.198;5.732;2022-07-18T13:00:23;4.93;;;1.40;;
67340;SDS011;54227;45.198;5.732;2022-07-18T13:02:50;3.35;;;1.48;;
67340;SDS011;54227;45.198;5.732;2022-07-18T13:05:15;3.83;;;1.65;;
67340;SDS011;54227;45.198;5.732;2022-07-18T13:07:41;5.40;;;2.17;;
67340;SDS011;54227;45.198;5.732;2022-07-18T13:10:06;4.05;;;1.80;;
67340;SDS011;54227;45.198;5.732;2022-07-18T13:12:32;3.00;;;2.00;;
67340;SDS011;54227;45.198;5.732;2022-07-18T13:14:58;4.57;;;2.00;;
67340;SDS011;54227;45.198;5.732;2022-07-18T13:17:23;3.58;;;2.00;;
67340;SDS011;54227;45.198;5.732;2022-07-18T13:19:50;3.65;;;1.83;;
67340;SDS011;54227;45.198;5.732;2022-07-18T13:22:16;2.33;;;1.65;;
67340;SDS011;54227;45.198;5.732;2022-07-18T13:24:42;2.53;;;1.70;;
67340;SDS011;54227;45.198;5.732;2022-07-18T13:27:07;4.65;;;1.77;;
67340;SDS011;54227;45.198;5.732;2022-07-18T13:29:33;4.00;;;1.70;;
67340;SDS011;54227;45.198;5.732;2022-07-18T13:31:59;3.10;;;1.73;;
67340;SDS011;54227;45.198;5.732;2022-07-18T13:34:26;9.80;;;1.70;;
67340;SDS011;54227;45.198;5.732;2022-07-18T13:36:56;2.75;;;1.67;;
67340;SDS011;54227;45.198;5.732;2022-07-18T13:39:22;1.88;;;1.38;;
67340;SDS011;54227;45.198;5.732;2022-07-18T13:41:48;2.45;;;1.48;;
67340;SDS011;54227;45.198;5.732;2022-07-18T13:44:15;3.13;;;1.63;;
67340;SDS011;54227;45.198;5.732;2022-07-18T13:46:41;2.03;;;1.40;;
67340;SDS011;54227;45.198;5.732;2022-07-18T13:49:08;2.08;;;1.38;;
67340;SDS011;54227;45.198;5.732;2022-07-18T13:51:35;2.97;;;1.38;;
67340;SDS011;54227;45.198;5.732;2022-07-18T13:54:02;2.58;;;1.30;;
67340;SDS011;54227;45.198;5.732;2022-07-18T13:56:29;2.15;;;1.40;;
67340;SDS011;54227;45.198;5.732;2022-07-18T13:58:55;2.70;;;1.50;;
67340;SDS011;54227;45.198;5.732;2022-07-18T14:01:20;2.15;;;1.35;;
67340;SDS011;54227;45.198;5.732;2022-07-18T14:03:46;2.28;;;1.50;;
67340;SDS011;54227;45.198;5.732;2022-07-18T14:06:11;3.25;;;1.30;;
67340;SDS011;54227;45.198;5.732;2022-07-18T14:08:37;2.53;;;1.35;;
67340;SDS011;54227;45.198;5.732;2022-07-18T14:11:02;4.20;;;1.30;;
67340;SDS011;54227;45.198;5.732;2022-07-18T14:13:28;2.58;;;1.48;;
67340;SDS011;54227;45.198;5.732;2022-07-18T14:15:53;2.17;;;1.30;;
67340;SDS011;54227;45.198;5.732;2022-07-18T14:18:19;2.05;;;1.30;;
67340;SDS011;54227;45.198;5.732;2022-07-18T14:20:44;2.42;;;1.30;;
67340;SDS011;54227;45.198;5.732;2022-07-18T14:23:10;3.80;;;1.40;;
67340;SDS011;54227;45.198;5.732;2022-07-18T14:25:35;2.05;;;1.20;;
67340;SDS011;54227;45.198;5.732;2022-07-18T14:28:01;4.28;;;1.40;;
67340;SDS011;54227;45.198;5.732;2022-07-18T14:30:27;2.63;;;1.40;;
67340;SDS011;54227;45.198;5.732;2022-07-18T14:32:52;2.20;;;1.38;;
67340;SDS011;54227;45.198;5.732;2022-07-18T14:35:18;5.60;;;1.50;;
67340;SDS011;54227;45.198;5.732;2022-07-18T14:37:44;6.28;;;1.40;;
67340;SDS011;54227;45.198;5.732;2022-07-18T14:40:10;6.75;;;1.58;;
67340;SDS011;54227;45.198;5.732;2022-07-18T14:42:36;3.65;;;1.40;;
67340;SDS011;54227;45.198;5.732;2022-07-18T14:45:02;4.30;;;1.35;;
67340;SDS011;54227;45.198;5.732;2022-07-18T14:47:28;4.95;;;1.30;;
67340;SDS011;54227;45.198;5.732;2022-07-18T14:49:56;2.38;;;1.25;;
67340;SDS011;54227;45.198;5.732;2022-07-18T14:52:23;2.50;;;1.23;;
67340;SDS011;54227;45.198;5.732;2022-07-18T14:54:49;2.63;;;1.20;;
67340;SDS011;54227;45.198;5.732;2022-07-18T14:57:14;3.30;;;1.45;;
67340;SDS011;54227;45.198;5.732;2022-07-18T14:59:41;1.77;;;1.10;;
67340;SDS011;54227;45.198;5.732;2022-07-18T15:02:06;2.53;;;1.30;;
67340;SDS011;54227;45.198;5.732;2022-07-18T15:04:32;3.00;;;1.30;;
67340;SDS011;54227;45.198;5.732;2022-07-18T15:06:58;2.17;;;1.20;;
67340;SDS011;54227;45.198;5.732;2022-07-18T15:09:24;3.08;;;1.25;;
67340;SDS011;54227;45.198;5.732;2022-07-18T15:11:49;1.88;;;1.08;;
67340;SDS011;54227;45.198;5.732;2022-07-18T15:14:15;3.85;;;1.17;;
67340;SDS011;54227;45.198;5.732;2022-07-18T15:16:40;1.52;;;1.00;;
67340;SDS011;54227;45.198;5.732;2022-07-18T15:19:05;4.15;;;1.30;;
67340;SDS011;54227;45.198;5.732;2022-07-18T15:21:31;2.03;;;1.30;;
67340;SDS011;54227;45.198;5.732;2022-07-18T15:23:57;2.08;;;1.20;;
67340;SDS011;54227;45.198;5.732;2022-07-18T15:26:23;2.55;;;1.20;;
67340;SDS011;54227;45.198;5.732;2022-07-18T15:28:49;1.40;;;1.08;;
67340;SDS011;54227;45.198;5.732;2022-07-18T15:31:14;1.80;;;1.15;;
67340;SDS011;54227;45.198;5.732;2022-07-18T15:33:40;3.33;;;1.30;;
67340;SDS011;54227;45.198;5.732;2022-07-18T15:36:05;1.95;;;1.27;;